Page tree
Skip to end of metadata
Go to start of metadata

Tide Gauges

The tide gauge stations around Denmark meassure the water level and at some stations the water temperature as well. 

The oceanObs service provides data from 1889. However measurements are not available for all stations as far back as 1889. Click here to access a spreadsheet displaying the historic availability for each parameter at each station. 

Please note that you have to download the spreadsheet to your computer in order to view all parameters.

Endpoint

It is possible to get the station list through the oceanObs service by calling the station endpoint. See API documentation for endpoint.


A list of the stations available through the oceanObs service is listed below (last updated February 3rd 2021). 

stationIdnamecountryownertypestatuslatitudelongituderegioncreatedoperationFromoperationToupdatedvalidFromvalidTowmoCountryCodewmoStationId
20002Skagen HavnDNKDMITide-gauge-primaryActive57,716510,5951n/a2020-11-18 08:17:57.0552012-01-01n/an/a2012-01-01 00:00:00.000n/an/an/a
20043Hirtshals Havn IIDNKDMITide-gauge-secondaryActive57,59519,9625n/a2020-11-18 08:17:57.0552014-03-26n/an/a2014-03-26 00:00:00.000n/an/an/a
20047Hirtshals Havn IDNKDMITide-gauge-primaryActive57,59519,9625n/a2020-11-18 08:17:57.0551992-01-07n/an/a1992-01-07 00:00:00.000n/an/an/a
20048Hirtshals HavnDNKDMITide-gauge-primaryActive57,59519,9625n/a2020-11-18 08:17:57.0551971-11-041991-11-13n/a1971-11-04 00:00:00.0001991-11-13 00:00:00.000n/an/a
20048Hirtshals HavnDNKDMITide-gauge-primaryInactive57,59519,9625n/a2020-11-18 08:17:57.0551971-11-041991-11-13n/a1991-11-13 00:00:00.000n/an/an/a
20098FrederikshavnDNKDMITide-gauge-primaryActive57,435810,5475n/a2020-11-18 08:17:57.0551970-01-141991-11-14n/a1970-01-14 00:00:00.0001991-11-14 00:00:00.000n/an/a
20098FrederikshavnDNKDMITide-gauge-primaryInactive57,435810,5475n/a2020-11-18 08:17:57.0551970-01-141991-11-14n/a1991-11-14 00:00:00.000n/an/an/a
20101Frederikshavn IDNKDMITide-gauge-primaryActive57,435810,5475n/a2020-11-18 08:17:57.0551991-12-03n/an/a1991-12-03 00:00:00.0002014-03-25 00:00:00.000n/an/a
20101Frederikshavn IDNKDMITide-gauge-primaryActive57,435710,5479n/a2020-11-18 08:17:57.0551991-12-03n/an/a2014-03-25 00:00:00.000n/an/an/a
20102Frederikshavn IIDNKDMITide-gauge-secondaryActive57,435710,5479n/a2020-11-18 08:17:57.0552014-03-26n/an/a2014-03-26 00:00:00.000n/an/an/a
20566Hobro Havn IDNKDMITide-gauge-primaryActive56,63889,8038n/a2020-11-18 08:17:57.0552011-12-28n/an/a2011-12-28 00:00:00.000n/an/an/a
20567Hobro Havn IIDNKDMITide-gauge-secondaryActive56,63889,8038n/a2020-11-18 08:17:57.0552011-12-28n/an/a2011-12-28 00:00:00.0002015-09-30 00:00:00.000n/an/a
20567Hobro Havn IIDNKDMITide-gauge-secondaryActive56,63789,8094n/a2020-11-18 08:17:57.0552011-12-28n/an/a2015-09-30 00:00:00.0002018-04-09 00:00:00.000n/an/a
20567Hobro Havn IIDNKDMITide-gauge-secondaryActive56,63889,8038n/a2020-11-18 08:17:57.0552011-12-28n/an/a2018-04-09 00:00:00.000n/an/an/a
21008Hanstholm HavnDNKDMITide-gauge-primaryActive57,12168,6015n/a2020-11-18 08:17:57.0551969-01-011991-06-03n/a1969-01-01 00:00:00.0001991-06-03 00:00:00.000n/an/a
21008Hanstholm HavnDNKDMITide-gauge-primaryInactive57,12168,6015n/a2020-11-18 08:17:57.0551969-01-011991-06-03n/a1991-06-03 00:00:00.000n/an/an/a
21009Hanstholm Havn IDNKDMITide-gauge-primaryActive57,11828,5943n/a2020-11-18 08:17:57.0551991-11-22n/an/a1991-11-22 00:00:00.0002014-06-02 00:00:00.000n/an/a
21009Hanstholm Havn IDNKDMITide-gauge-primaryActive57,128,5955n/a2020-11-18 08:17:57.0551991-11-22n/an/a2014-06-02 00:00:00.000n/an/an/a
21011Hanstholm Havn IIDNKDMITide-gauge-secondaryActive57,128,5955n/a2020-11-18 08:17:57.0552014-06-02n/an/a2014-06-02 00:00:00.000n/an/an/a
22009Udbyhøj Havn IIDNKDMITide-gauge-secondaryActive56,60710,3016n/a2020-11-18 08:17:57.0552011-12-28n/an/a2011-12-28 00:00:00.000n/an/an/a
22058Randers Havn IDNKDMITide-gauge-primaryActive56,456910,0396n/a2020-11-18 08:17:57.0552011-12-28n/an/a2011-12-28 00:00:00.000n/an/an/a
22059Randers Havn IIDNKDMITide-gauge-secondaryActive56,456910,0396n/a2020-11-18 08:17:57.0552011-12-28n/an/a2011-12-28 00:00:00.000n/an/an/a
22121Grenå Havn IDNKDMITide-gauge-primaryActive56,412110,922n/a2020-11-18 08:17:57.0552012-01-01n/an/a2012-01-01 00:00:00.000n/an/an/a
22122Grenå Havn IIDNKDMITide-gauge-secondaryActive56,412110,922n/a2020-11-18 08:17:57.0552014-04-15n/an/a2014-04-15 00:00:00.000n/an/an/a
22331Århus Havn IDNKDMITide-gauge-primaryActive56,146610,2226n/a2020-11-18 08:17:57.0551992-07-30n/an/a1992-07-30 00:00:00.000n/an/an/a
22332Århus HavnDNKDMITide-gauge-primaryActive56,169310,2236n/a2020-11-18 08:17:57.0551970-03-111992-08-01n/a1970-03-11 00:00:00.0001992-08-01 00:00:00.000n/an/a
22332Århus HavnDNKDMITide-gauge-primaryInactive56,169310,2236n/a2020-11-18 08:17:57.0551970-03-111992-08-01n/a1992-08-01 00:00:00.000n/an/an/a
22333Århus Havn IIDNKDMITide-gauge-secondaryActive56,146610,2226n/a2020-11-18 08:17:57.0552014-04-08n/an/a2014-04-08 00:00:00.000n/an/an/a
22598Hov Havn IDNKDMITide-gauge-primaryActive55,912110,2589n/a2020-11-18 08:17:57.0552011-12-28n/an/a2011-12-28 00:00:00.000n/an/an/a
22599Hov Havn IIDNKDMITide-gauge-secondaryActive55,912110,2589n/a2020-11-18 08:17:57.0552011-12-28n/an/a2011-12-28 00:00:00.000n/an/an/a
23132Juelsminde HavnDNKDMITide-gauge-primaryActive55,715610,0163n/a2020-11-18 08:17:57.0552012-01-01n/an/a2012-01-01 00:00:00.000n/an/an/a
23289Fredericia Havn IIDNKDMITide-gauge-secondaryActive55,55959,753n/a2020-11-18 08:17:57.0552014-08-15n/an/a2014-08-15 00:00:00.000n/an/an/a
23292Fredericia HavnDNKDMITide-gauge-primaryActive55,56029,7532n/a2020-11-18 08:17:57.0551972-06-071991-10-24n/a1972-06-07 00:00:00.0001991-10-24 00:00:00.000n/an/a
23292Fredericia HavnDNKDMITide-gauge-primaryInactive55,56029,7532n/a2020-11-18 08:17:57.0551972-06-071991-10-24n/a1991-10-24 00:00:00.000n/an/an/a
23293Fredericia HavnDNKDMITide-gauge-primaryActive55,56029,7532n/a2020-11-18 08:17:57.0551991-10-31n/an/a1991-10-31 00:00:00.0002014-08-14 00:00:00.000n/an/a
23293Fredericia HavnDNKDMITide-gauge-primaryActive55,55959,753n/a2020-11-18 08:17:57.0551991-10-31n/an/a2014-08-14 00:00:00.000n/an/an/a
25148Esbjerg HavnDNKDMITide-gauge-primaryActive55,46028,4397n/a2020-11-18 08:17:57.0551889-01-011990-01-26n/a1889-01-01 00:00:00.0001990-01-26 00:00:00.000n/an/a
25148Esbjerg HavnDNKDMITide-gauge-primaryInactive55,46028,4397n/a2020-11-18 08:17:57.0551889-01-011990-01-26n/a1990-01-26 00:00:00.000n/an/an/a
25149Esbjerg HavnDNKDMITide-gauge-primaryActive55,46028,4397n/a2020-11-18 08:17:57.0551990-01-01n/an/a1990-01-01 00:00:00.000n/an/an/a
26359Vidåslusen/HøjerDNKDMITide-gauge-primaryActive54,96288,6619n/a2020-11-18 08:17:57.0551989-10-03n/an/a1989-10-03 00:00:00.000n/an/an/a
26457Fynshav Havn IDNKDMITide-gauge-primaryActive54,99479,9851n/a2020-11-18 08:17:57.0551991-10-30n/an/a1991-10-30 00:00:00.0002010-09-29 00:00:00.000n/an/a
26457Fynshav Havn IDNKDMITide-gauge-primaryActive54,99449,9856n/a2020-11-18 08:17:57.0551991-10-30n/an/a2010-09-29 00:00:00.000n/an/an/a
26458Fynshav HavnDNKDMITide-gauge-primaryActive54,99479,985n/a2020-11-18 08:17:57.0551969-11-071991-10-24n/a1969-11-07 00:00:00.0001991-10-24 00:00:00.000n/an/a
26458Fynshav HavnDNKDMITide-gauge-primaryInactive54,99479,985n/a2020-11-18 08:17:57.0551969-11-071991-10-24n/a1991-10-24 00:00:00.000n/an/an/a
26459Fynshav Havn IIDNKDMITide-gauge-secondaryActive54,99449,9856n/a2020-11-18 08:17:57.0552014-06-04n/an/a2014-06-04 00:00:00.000n/an/an/a
27084Ballen HavnDNKDMITide-gauge-primaryActive55,815510,6399n/a2020-11-18 08:17:57.0552012-01-01n/an/a2012-01-01 00:00:00.000n/an/an/a
28232SlipshavnDNKDMITide-gauge-primaryActive55,28810,8268n/a2020-11-18 08:17:57.0551971-10-151991-10-30n/a1971-10-15 00:00:00.0001991-10-30 00:00:00.000n/an/a
28232SlipshavnDNKDMITide-gauge-primaryInactive55,28810,8268n/a2020-11-18 08:17:57.0551971-10-151991-10-30n/a1991-10-30 00:00:00.000n/an/an/a
28233SlipshavnDNKDMITide-gauge-primaryActive55,28810,8268n/a2020-11-18 08:17:57.0551991-10-291996-06-05n/a1991-10-29 00:00:00.0001996-06-05 00:00:00.000n/an/a
28233SlipshavnDNKDMITide-gauge-primaryInactive55,28810,8268n/a2020-11-18 08:17:57.0551991-10-291996-06-05n/a1996-06-05 00:00:00.000n/an/an/a
28234SlipshavnDNKDMITide-gauge-primaryActive55,287810,8264n/a2020-11-18 08:17:57.0551996-11-18n/an/a1996-11-18 00:00:00.000n/an/an/a
28548Bagenkop HavnDNKDMITide-gauge-primaryActive54,751710,6724n/a2020-11-18 08:17:57.0552012-01-01n/an/a2012-01-01 00:00:00.000n/an/an/a
29002Havnebyen/Sjællands OddeDNKDMITide-gauge-primaryActive55,972811,3694n/a2020-11-18 08:17:57.0552012-01-01n/an/a2012-01-01 00:00:00.000n/an/an/a
29038Holbæk Havn IDNKDMITide-gauge-primaryActive55,721411,7089n/a2020-11-18 08:17:57.0552011-12-22n/an/a2011-12-22 00:00:00.000n/an/an/a
29039Holbæk Havn IIDNKDMITide-gauge-secondaryActive55,721411,7089n/a2020-11-18 08:17:57.0552011-12-22n/an/a2011-12-22 00:00:00.000n/an/an/a
29392Korsør HavnDNKDMITide-gauge-primaryActive55,335511,139n/a2020-11-18 08:17:57.0551972-10-201991-09-02n/a1972-10-20 00:00:00.0001991-09-02 00:00:00.000n/an/a
29392Korsør HavnDNKDMITide-gauge-primaryInactive55,335511,139n/a2020-11-18 08:17:57.0551972-10-201991-09-02n/a1991-09-02 00:00:00.000n/an/an/a
29393Korsør Havn IDNKDMITide-gauge-primaryActive55,335511,139n/a2020-11-18 08:17:57.0551991-10-19n/an/a1991-10-19 00:00:00.0002000-10-12 00:00:00.000n/an/a
29393Korsør Havn IDNKDMITide-gauge-primaryActive55,331511,1409n/a2020-11-18 08:17:57.0551991-10-19n/an/a2000-10-12 00:00:00.0002014-05-13 00:00:00.000n/an/a
29393Korsør Havn IDNKDMITide-gauge-primaryActive55,330711,1422n/a2020-11-18 08:17:57.0551991-10-19n/an/a2014-05-13 00:00:00.000n/an/an/a
29394Korsør Havn IIDNKDMITide-gauge-secondaryActive55,330711,1422n/a2020-11-18 08:17:57.0552014-05-13n/an/a2014-05-13 00:00:00.000n/an/an/a
30017Hornbæk HavnDNKDMITide-gauge-primaryActive56,093412,4571n/a2020-11-18 08:17:57.0551991-11-08n/an/a1991-11-08 00:00:00.000n/an/an/a
30018Hornbæk HavnDNKDMITide-gauge-primaryActive56,093412,4571n/a2020-11-18 08:17:57.0551891-01-011991-10-11n/a1891-01-01 00:00:00.0001991-10-11 00:00:00.000n/an/a
30018Hornbæk HavnDNKDMITide-gauge-primaryInactive56,093412,4571n/a2020-11-18 08:17:57.0551891-01-011991-10-11n/a1991-10-11 00:00:00.000n/an/an/a
30202Vedbæk Havn IDNKDMITide-gauge-primaryActive55,849112,5715n/a2020-11-18 08:17:57.0552011-12-20n/an/a2011-12-20 00:00:00.000n/an/an/a
30203Vedbæk Havn IIDNKDMITide-gauge-secondaryActive55,849112,5715n/a2020-11-18 08:17:57.0552011-12-21n/an/a2011-12-21 00:00:00.000n/an/an/a
30336Københavns HavnDNKDMITide-gauge-primaryActive55,704212,5988n/a2020-11-18 08:17:57.0551999-06-24n/an/a1999-06-24 00:00:00.0002001-04-06 00:00:00.000n/an/a
30336Københavns HavnDNKDMITide-gauge-primaryActive55,704412,599n/a2020-11-18 08:17:57.0551999-06-24n/an/a2001-04-06 00:00:00.0002011-01-19 00:00:00.000n/an/a
30336Københavns HavnDNKDMITide-gauge-primaryActive55,704312,5989n/a2020-11-18 08:17:57.0551999-06-24n/an/a2011-01-19 00:00:00.000n/an/an/a
30337Københavns HavnDNKDMITide-gauge-primaryActive55,689412,5992n/a2020-11-18 08:17:57.0551989-08-241999-09-06n/a1989-08-24 00:00:00.0001999-09-06 00:00:00.000n/an/a
30337Københavns HavnDNKDMITide-gauge-primaryInactive55,689412,5992n/a2020-11-18 08:17:57.0551989-08-241999-09-06n/a1999-09-06 00:00:00.000n/an/an/a
30338Københavns HavnDNKDMITide-gauge-primaryActive55,689412,5992n/a2020-11-18 08:17:57.0551984-12-311991-05-02n/a1984-12-31 00:00:00.0001991-05-02 00:00:00.000n/an/a
30338Københavns HavnDNKDMITide-gauge-primaryInactive55,689412,5992n/a2020-11-18 08:17:57.0551984-12-311991-05-02n/a1991-05-02 00:00:00.000n/an/an/a
30339Københavns HavnDNKDMITide-gauge-primaryActive55,689612,5993n/a2020-11-18 08:17:57.0551974-07-181985-01-01n/a1974-07-18 00:00:00.0001985-01-01 00:00:00.000n/an/a
30339Københavns HavnDNKDMITide-gauge-primaryInactive55,689612,5993n/a2020-11-18 08:17:57.0551974-07-181985-01-01n/a1985-01-01 00:00:00.000n/an/an/a
30357Drogden FyrDNKDMITide-gauge-primaryActive55,536412,7113n/a2020-11-18 08:17:57.0552012-01-01n/an/a2012-01-01 00:00:00.000n/an/an/a
30361Dragør Havn IDNKDMITide-gauge-primaryActive55,593512,6785n/a2020-11-18 08:17:57.0552011-07-06n/an/a2011-07-06 00:00:00.000n/an/an/a
30363Dragør Havn IIDNKDMITide-gauge-secondaryActive55,593512,6785n/a2020-11-18 08:17:57.0552011-07-06n/an/a2011-07-06 00:00:00.000n/an/an/a
30407Roskilde Havn IDNKDMITide-gauge-primaryActive55,650912,0771n/a2020-11-18 08:17:57.0552011-12-20n/an/a2011-12-20 00:00:00.000n/an/an/a
30409Roskilde Havn IIDNKDMITide-gauge-secondaryActive55,650912,0771n/a2020-11-18 08:17:57.0552011-12-21n/an/a2011-12-21 00:00:00.000n/an/an/a
30478Køge Havn IDNKDMITide-gauge-primaryActive55,455512,1965n/a2020-11-18 08:17:57.0552011-12-21n/an/a2011-12-21 00:00:00.000n/an/an/a
30479Køge Havn IIDNKDMITide-gauge-secondaryActive55,455512,1965n/a2020-11-18 08:17:57.0552011-12-21n/an/a2011-12-21 00:00:00.000n/an/an/a
31063Rødvig HavnDNKDMITide-gauge-primaryActive55,254312,3744n/a2020-11-18 08:17:57.0552012-01-01n/an/a2012-01-01 00:00:00.000n/an/an/a
31572Rødbyhavns HavnDNKDMITide-gauge-primaryActive54,655111,3474n/a2020-11-18 08:17:57.0551980-01-081990-09-21n/a1980-01-08 00:00:00.0001990-09-21 00:00:00.000n/an/a
31572Rødbyhavns HavnDNKDMITide-gauge-primaryInactive54,655111,3474n/a2020-11-18 08:17:57.0551980-01-081990-09-21n/a1990-09-21 00:00:00.000n/an/an/a
31573Rødbyhavns Havn IDNKDMITide-gauge-primaryActive54,655111,3474n/a2020-11-18 08:17:57.0551989-09-20n/an/a1989-09-20 00:00:00.0002014-04-29 00:00:00.000n/an/a
31573Rødbyhavns Havn IDNKDMITide-gauge-primaryActive54,656111,3475n/a2020-11-18 08:17:57.0551989-09-20n/an/a2014-04-29 00:00:00.000n/an/an/a
31574Rødbyhavns Havn IIDNKDMITide-gauge-secondaryActive54,656111,3475n/a2020-11-18 08:17:57.0552014-05-02n/an/a2014-05-02 00:00:00.000n/an/an/a
31616Gedser Havn IDNKDMITide-gauge-primaryActive54,572311,9241n/a2020-11-18 08:17:57.0551991-11-07n/an/a1991-11-07 00:00:00.0002001-11-23 00:00:00.000n/an/a
31616Gedser Havn IDNKDMITide-gauge-primaryActive54,572111,9245n/a2020-11-18 08:17:57.0551991-11-07n/an/a2001-11-23 00:00:00.000n/an/an/a
31618Gedser HavnDNKDMITide-gauge-primaryActive54,572311,9241n/a2020-11-18 08:17:57.0551891-09-011991-10-18n/a1891-09-01 00:00:00.0001991-10-18 00:00:00.000n/an/a
31618Gedser HavnDNKDMITide-gauge-primaryInactive54,572311,9241n/a2020-11-18 08:17:57.0551891-09-011991-10-18n/a1991-10-18 00:00:00.000n/an/an/a
31623Gedser Havn IIDNKDMITide-gauge-secondaryActive54,572111,9245n/a2020-11-18 08:17:57.0552014-05-02n/an/a2014-05-02 00:00:00.000n/an/an/a
32048Tejn HavnDNKDMITide-gauge-primaryActive55,24914,8368n/a2020-11-18 08:17:57.0551992-08-19n/an/a1992-08-19 00:00:00.000n/an/an/a
9004201Thyborøn HavnDNKKystdirektoratet / Coastal AuthorityTide-gauge-primaryActive56,70538,2225n/a2020-11-18 08:17:57.0551990-10-03n/an/a1990-10-03 00:00:00.000n/an/an/a
9004203Thyborøn KystDNKKystdirektoratet / Coastal AuthorityTide-gauge-primaryActive56,70778,2088n/a2020-11-18 08:17:57.0551990-10-03n/an/a1990-10-03 00:00:00.000n/an/an/a
9004303FerringDNKKystdirektoratet / Coastal AuthorityTide-gauge-primaryActive56,52468,1152n/a2020-11-18 08:17:57.0551994-08-25n/an/a1994-08-25 00:00:00.000n/an/an/a
9005101Thorsminde HavnDNKKystdirektoratet / Coastal AuthorityTide-gauge-primaryActive56,37048,1201n/a2020-11-18 08:17:57.0551990-10-05n/an/a1990-10-05 00:00:00.000n/an/an/a
9005103Thorsminde Kyst IDNKKystdirektoratet / Coastal AuthorityTide-gauge-primaryActive56,37268,1136n/a2020-11-18 08:17:57.0551990-10-26n/an/a1990-10-26 00:00:00.000n/an/an/a
9005104Thorsminde Kyst IIDNKKystdirektoratet / Coastal AuthorityTide-gauge-secondaryActive56,37268,1136n/a2020-11-18 08:17:57.0552018-08-28n/an/a2018-08-28 00:00:00.000n/an/an/a
9005110Thorsminde FjordDNKKystdirektoratet / Coastal AuthorityTide-gauge-primaryActive56,37168,1259n/a2020-11-18 08:17:57.0551990-12-03n/an/a1990-12-03 00:00:00.000n/an/an/a
9005113Felsted Kog/KlosterhulDNKKystdirektoratet / Coastal AuthorityTide-gauge-primaryActive56,29598,2768n/a2020-11-18 08:17:57.0552001-05-28n/an/a2001-05-28 00:00:00.000n/an/an/a
9005201Hvide Sande HavnDNKKystdirektoratet / Coastal AuthorityTide-gauge-primaryActive56,00058,129n/a2020-11-18 08:17:57.0551990-10-05n/an/a1990-10-05 00:00:00.000n/an/an/a
9005203Hvide Sande KystDNKKystdirektoratet / Coastal AuthorityTide-gauge-primaryActive55,99898,1145n/a2020-11-18 08:17:57.0551990-10-05n/an/a1990-10-05 00:00:00.0002013-04-04 00:00:00.000n/an/a
9005203Hvide Sande KystDNKKystdirektoratet / Coastal AuthorityTide-gauge-primaryActive55,99678,1098n/a2020-11-18 08:17:57.0551990-10-05n/an/a2013-04-04 00:00:00.000n/an/an/a
9005210Hvide Sande FjordDNKKystdirektoratet / Coastal AuthorityTide-gauge-primaryActive55,99998,1295n/a2020-11-18 08:17:57.0551990-12-03n/an/a1990-12-03 00:00:00.000n/an/an/a
9005212Ringkøbing HavnDNKKystdirektoratet / Coastal AuthorityTide-gauge-primaryActive56,08758,2396n/a2020-11-18 08:17:57.0552001-05-28n/an/a2001-05-28 00:00:00.000n/an/an/a
9005213Bork HavnDNKKystdirektoratet / Coastal AuthorityTide-gauge-primaryActive55,84948,2794n/a2020-11-18 08:17:57.0552001-05-28n/an/a2001-05-28 00:00:00.000n/an/an/a
9006401Esbjerg HavnDNKKystdirektoratet / Coastal AuthorityTide-gauge-primaryActive55,47168,4237n/a2020-11-18 08:17:57.0551990-09-05n/an/a1990-09-05 00:00:00.000n/an/an/a
9006501Vidåslusen/HøjerDNKKystdirektoratet / Coastal AuthorityTide-gauge-primaryActive54,96288,6619n/a2020-11-18 08:17:57.0551990-09-05n/an/a1990-09-05 00:00:00.000n/an/an/a
9006601Ballum SluseDNKKystdirektoratet / Coastal AuthorityTide-gauge-primaryActive55,13088,6858n/a2020-11-18 08:17:57.0551990-09-05n/an/a1990-09-05 00:00:00.000n/an/an/a
9006701Ribe Kammersluse IDNKKystdirektoratet / Coastal AuthorityTide-gauge-primaryActive55,348,676n/a2020-11-18 08:17:57.0551990-09-05n/an/a1990-09-05 00:00:00.000n/an/an/a
9006703Ribe Kammersluse IIDNKKystdirektoratet / Coastal AuthorityTide-gauge-secondaryActive55,34088,6738n/a2020-11-18 08:17:57.0552000-11-01n/an/a2000-11-01 00:00:00.000n/an/an/a
9006801Havneby Havn IDNKKystdirektoratet / Coastal AuthorityTide-gauge-primaryActive55,08718,5654n/a2020-11-18 08:17:57.0551990-09-05n/an/a1990-09-05 00:00:00.000n/an/an/a
9006802Havneby Havn IIDNKKystdirektoratet / Coastal AuthorityTide-gauge-secondaryActive55,08718,5654n/a2020-11-18 08:17:57.0552010-02-22n/an/a2010-02-22 00:00:00.000n/an/an/a
9006901Brøns Sluse IDNKKystdirektoratet / Coastal AuthorityTide-gauge-primaryActive55,18638,6875n/a2020-11-18 08:17:57.0552000-11-02n/an/a2000-11-02 00:00:00.000n/an/an/a
9006902Brøns Sluse IIDNKKystdirektoratet / Coastal AuthorityTide-gauge-secondaryActive55,18638,6875n/a2020-11-18 08:17:57.0552000-11-02n/an/a2000-11-02 00:00:00.000n/an/an/a
9007101Mandø IDNKKystdirektoratet / Coastal AuthorityTide-gauge-primaryActive55,27648,5739n/a2020-11-18 08:17:57.0552000-11-02n/an/a2000-11-02 00:00:00.000n/an/an/a
9007102Mandø IIDNKKystdirektoratet / Coastal AuthorityTide-gauge-secondaryActive55,27648,5739n/a2020-11-18 08:17:57.0552000-11-02n/an/a2000-11-02 00:00:00.000n/an/an/a
9010101Haderslev Havn IDNKKystdirektoratet / Coastal AuthorityTide-gauge-primaryActive55,25199,5092n/a2020-11-18 08:17:57.0552000-12-12n/an/a2000-12-12 00:00:00.000n/an/an/a
9010102Haderslev Havn IIDNKKystdirektoratet / Coastal AuthorityTide-gauge-secondaryActive55,25199,5092n/a2020-11-18 08:17:57.0552000-12-12n/an/a2000-12-12 00:00:00.000n/an/an/a
9010201Sønderborg Havn IDNKKystdirektoratet / Coastal AuthorityTide-gauge-primaryActive54,91079,7853n/a2020-11-18 08:17:57.0552000-12-15n/an/a2000-12-15 00:00:00.000n/an/an/a
9010202Sønderborg Havn IIDNKKystdirektoratet / Coastal AuthorityTide-gauge-secondaryActive54,91079,7853n/a2020-11-18 08:17:57.0552000-12-15n/an/a2000-12-15 00:00:00.000n/an/an/a
9020101Bogense Havn IDNKKystdirektoratet / Coastal AuthorityTide-gauge-primaryActive55,566310,08n/a2020-11-18 08:17:57.0552000-11-29n/an/a2000-11-29 00:00:00.000n/an/an/a
9020102Bogense Havn IIDNKKystdirektoratet / Coastal AuthorityTide-gauge-secondaryActive55,566310,08n/a2020-11-18 08:17:57.0552000-11-29n/an/a2000-11-29 00:00:00.000n/an/an/a
9020201Assens Havn IDNKKystdirektoratet / Coastal AuthorityTide-gauge-primaryActive55,27069,8897n/a2020-11-18 08:17:57.0552000-11-21n/an/a2000-11-21 00:00:00.000n/an/an/a
9020202Assens Havn IIDNKKystdirektoratet / Coastal AuthorityTide-gauge-secondaryActive55,27069,8897n/a2020-11-18 08:17:57.0552000-11-21n/an/a2000-11-21 00:00:00.000n/an/an/a
9020301Fåborg Havn IDNKKystdirektoratet / Coastal AuthorityTide-gauge-primaryActive55,093410,2412n/a2020-11-18 08:17:57.0552000-11-28n/an/a2000-11-28 00:00:00.000n/an/an/a
9020302Fåborg Havn IIDNKKystdirektoratet / Coastal AuthorityTide-gauge-secondaryActive55,093410,2412n/a2020-11-18 08:17:57.0552000-11-28n/an/a2000-11-28 00:00:00.000n/an/an/a
9020401Kerteminde Havn IDNKKystdirektoratet / Coastal AuthorityTide-gauge-primaryActive55,450810,6651n/a2020-11-18 08:17:57.0552011-01-25n/an/a2011-01-25 00:00:00.000n/an/an/a
9020402Kerteminde Havn IIDNKKystdirektoratet / Coastal AuthorityTide-gauge-secondaryActive55,450810,6651n/a2020-11-18 08:17:57.0552011-01-25n/an/a2011-01-25 00:00:00.000n/an/an/a
9030101Karrebæksminde IDNKKystdirektoratet / Coastal AuthorityTide-gauge-primaryActive55,176611,6471n/a2020-11-18 08:17:57.0552000-12-07n/an/a2000-12-07 00:00:00.000n/an/an/a
9030102Karrebæksminde IIDNKKystdirektoratet / Coastal AuthorityTide-gauge-secondaryActive55,176611,6471n/a2020-11-18 08:17:57.0552000-12-07n/an/a2000-12-07 00:00:00.000n/an/an/a
9030201Kalvehave IDNKKystdirektoratet / Coastal AuthorityTide-gauge-primaryActive54,99512,1666n/a2020-11-18 08:17:57.0552000-12-05n/an/a2000-12-05 00:00:00.000n/an/an/a
9030202Kalvehave IIDNKKystdirektoratet / Coastal AuthorityTide-gauge-secondaryActive54,99512,1666n/a2020-11-18 08:17:57.0552000-12-05n/an/a2000-12-05 00:00:00.000n/an/an/a
9030301Hesnæs Havn IDNKKystdirektoratet / Coastal AuthorityTide-gauge-primaryActive54,823112,1373n/a2020-11-18 08:17:57.0552004-11-01n/an/a2004-11-01 00:00:00.000n/an/an/a
9030302Hesnæs Havn IIDNKKystdirektoratet / Coastal AuthorityTide-gauge-secondaryActive54,823112,1373n/a2020-11-18 08:17:57.0552004-10-05n/an/a2004-10-05 00:00:00.000n/an/an/a
9030401Rønne Havn IDNKKystdirektoratet / Coastal AuthorityTide-gauge-primaryActive55,093214,6896n/a2020-11-18 08:17:57.0552004-11-01n/an/a2004-11-01 00:00:00.000n/an/an/a
9030402Rønne Havn IIDNKKystdirektoratet / Coastal AuthorityTide-gauge-secondaryActive55,093214,6896n/a2020-11-18 08:17:57.0552004-10-18n/an/a2004-10-18 00:00:00.000n/an/an/a
9030501Bandholm Havn IDNKKystdirektoratet / Coastal AuthorityTide-gauge-primaryActive54,836811,4879n/a2020-11-18 08:17:57.0552011-03-24n/an/a2011-03-24 00:00:00.000n/an/an/a
9030502Bandholm Havn IIDNKKystdirektoratet / Coastal AuthorityTide-gauge-secondaryActive54,836811,4879n/a2020-11-18 08:17:57.0552011-03-24n/an/a2011-03-24 00:00:00.000n/an/an/a



  • No labels